createdAt,value
2023-01-29T00:00:36.692Z,5.63
2023-01-29T00:03:11.573Z,5.43
2023-01-29T00:05:46.475Z,4.30
2023-01-29T00:08:21.326Z,4.83
2023-01-29T00:11:02.662Z,4.77
2023-01-29T00:13:37.481Z,6.03
2023-01-29T00:16:13.233Z,5.70
2023-01-29T00:18:48.071Z,7.67
2023-01-29T00:21:23.712Z,8.07
2023-01-29T00:23:59.384Z,8.03
2023-01-29T00:26:34.272Z,7.63
2023-01-29T00:29:09.117Z,8.87
2023-01-29T00:31:45.487Z,5.93
2023-01-29T00:34:21.399Z,7.00
2023-01-29T00:37:04.608Z,5.50
2023-01-29T00:39:47.724Z,5.67
2023-01-29T00:42:42.052Z,5.50
2023-01-29T00:45:18.820Z,5.37
2023-01-29T00:47:53.903Z,5.90
2023-01-29T00:50:30.761Z,5.00
2023-01-29T00:53:05.611Z,5.33
2023-01-29T00:55:40.473Z,6.13
2023-01-29T00:58:22.164Z,5.77
2023-01-29T01:00:57.275Z,5.00
2023-01-29T01:03:35.063Z,6.00
2023-01-29T01:06:11.228Z,5.40
2023-01-29T01:09:04.340Z,5.63
2023-01-29T01:11:39.175Z,6.13
2023-01-29T01:14:14.299Z,6.07
2023-01-29T01:16:50.981Z,5.50
2023-01-29T01:19:25.945Z,5.23
2023-01-29T01:22:00.834Z,4.87
2023-01-29T01:24:35.764Z,6.67
2023-01-29T01:27:10.639Z,6.20
2023-01-29T01:29:46.837Z,5.87
2023-01-29T01:32:21.690Z,6.47
2023-01-29T01:34:56.592Z,10.23
2023-01-29T01:37:31.477Z,7.63
2023-01-29T01:40:19.585Z,6.10
2023-01-29T01:42:58.471Z,5.13
2023-01-29T01:45:36.068Z,5.40
2023-01-29T01:48:14.651Z,6.73
2023-01-29T01:50:58.898Z,6.23
2023-01-29T01:53:42.618Z,6.00
2023-01-29T01:56:25.080Z,6.20
2023-01-29T01:59:00.155Z,5.90
2023-01-29T02:01:35.081Z,5.00
2023-01-29T02:04:37.562Z,5.73
2023-01-29T02:07:34.212Z,5.73
2023-01-29T02:10:14.396Z,5.90
2023-01-29T02:12:49.543Z,6.13
2023-01-29T02:15:24.458Z,4.73
2023-01-29T02:17:59.896Z,8.03
2023-01-29T02:20:35.629Z,6.10
2023-01-29T02:23:33.677Z,5.93
2023-01-29T02:26:44.650Z,5.00
2023-01-29T02:29:58.747Z,4.60
2023-01-29T02:32:58.579Z,5.60
2023-01-29T02:36:00.883Z,5.60
2023-01-29T02:39:31.393Z,6.30
2023-01-29T02:42:41.859Z,4.90
2023-01-29T02:45:26.792Z,4.33
2023-01-29T02:48:03.280Z,5.37
2023-01-29T02:50:51.164Z,6.90
2023-01-29T02:54:17.742Z,4.87
2023-01-29T02:57:01.164Z,5.87
2023-01-29T03:00:10.588Z,5.63
2023-01-29T03:03:20.482Z,5.53
2023-01-29T03:06:18.306Z,4.50
2023-01-29T03:09:02.556Z,6.30
2023-01-29T03:11:43.026Z,5.93
2023-01-29T03:14:59.075Z,5.40
2023-01-29T03:17:40.698Z,7.03
2023-01-29T03:20:20.676Z,4.70
2023-01-29T03:23:02.771Z,5.40
2023-01-29T03:25:58.803Z,5.47
2023-01-29T03:28:59.237Z,5.70
2023-01-29T03:31:53.966Z,7.43
2023-01-29T03:34:38.832Z,6.23
2023-01-29T03:37:27.071Z,8.10
2023-01-29T03:40:07.176Z,5.40
2023-01-29T03:43:34.557Z,5.37
2023-01-29T03:46:31.443Z,6.83
2023-01-29T03:49:27.975Z,5.60
2023-01-29T03:52:10.574Z,5.03
2023-01-29T03:55:00.836Z,5.40
2023-01-29T03:57:45.550Z,7.03
2023-01-29T04:00:32.788Z,5.27
2023-01-29T04:03:32.926Z,6.47
2023-01-29T04:06:16.316Z,9.03
2023-01-29T04:09:16.397Z,6.50
2023-01-29T04:12:16.469Z,5.83
2023-01-29T04:14:54.593Z,6.67
2023-01-29T04:17:38.265Z,5.43
2023-01-29T04:20:35.826Z,6.20
2023-01-29T04:23:26.398Z,5.47
2023-01-29T04:26:37.381Z,4.87
2023-01-29T04:29:44.427Z,4.93
2023-01-29T04:32:48.092Z,6.00
2023-01-29T04:35:59.996Z,5.60
2023-01-29T04:38:40.758Z,5.60
2023-01-29T04:41:22.827Z,6.67
2023-01-29T04:44:04.685Z,4.97
2023-01-29T04:46:48.227Z,5.37
2023-01-29T04:50:01.465Z,6.63
2023-01-29T04:53:01.496Z,5.60
2023-01-29T04:56:13.734Z,4.97
2023-01-29T04:58:56.857Z,5.50
2023-01-29T05:01:34.179Z,5.57
2023-01-29T05:04:14.005Z,8.20
2023-01-29T05:06:49.662Z,5.80
2023-01-29T05:09:26.118Z,7.40
2023-01-29T05:12:03.231Z,6.03
2023-01-29T05:14:39.851Z,5.93
2023-01-29T05:17:18.283Z,6.30
2023-01-29T05:19:53.231Z,6.33
2023-01-29T05:22:28.605Z,7.40
2023-01-29T05:25:03.568Z,7.43
2023-01-29T05:27:56.928Z,7.50
2023-01-29T05:30:34.827Z,6.13
2023-01-29T05:33:22.179Z,5.33
2023-01-29T05:35:59.507Z,6.53
2023-01-29T05:38:34.404Z,5.43
2023-01-29T05:41:09.285Z,8.87
2023-01-29T05:43:44.183Z,10.13
2023-01-29T05:46:19.168Z,5.17
2023-01-29T05:48:54.026Z,6.27
2023-01-29T05:51:28.913Z,7.27
2023-01-29T05:54:04.015Z,7.27
2023-01-29T05:56:40.020Z,6.10
2023-01-29T05:59:16.562Z,7.30
2023-01-29T06:01:51.580Z,5.27
2023-01-29T06:04:26.522Z,6.50
2023-01-29T06:07:03.412Z,6.77
2023-01-29T06:09:38.409Z,5.07
2023-01-29T06:12:13.458Z,5.33
2023-01-29T06:14:48.477Z,5.57
2023-01-29T06:17:23.380Z,5.47
2023-01-29T06:19:58.248Z,5.33
2023-01-29T06:22:33.578Z,5.70
2023-01-29T06:25:09.164Z,7.03
2023-01-29T06:27:44.148Z,6.97
2023-01-29T06:30:19.436Z,5.70
2023-01-29T06:32:59.090Z,5.90
2023-01-29T06:35:34.041Z,6.60
2023-01-29T06:38:08.974Z,6.67
2023-01-29T06:40:43.867Z,6.17
2023-01-29T06:43:19.528Z,6.00
2023-01-29T06:45:57.369Z,5.27
2023-01-29T06:48:32.582Z,6.43
2023-01-29T06:51:10.594Z,5.63
2023-01-29T06:53:46.477Z,6.60
2023-01-29T06:56:22.312Z,6.00
2023-01-29T06:58:57.271Z,6.13
2023-01-29T07:01:35.991Z,5.73
2023-01-29T07:04:11.614Z,6.13
2023-01-29T07:06:46.531Z,8.90
2023-01-29T07:09:21.468Z,7.20
2023-01-29T07:11:56.409Z,7.90
2023-01-29T07:14:31.301Z,6.93
2023-01-29T07:17:06.182Z,6.60
2023-01-29T07:19:41.169Z,5.60
2023-01-29T07:22:16.353Z,6.10
2023-01-29T07:24:51.529Z,5.17
2023-01-29T07:27:27.594Z,7.60
2023-01-29T07:30:02.494Z,6.90
2023-01-29T07:32:37.394Z,6.20
2023-01-29T07:35:12.265Z,6.43
2023-01-29T07:37:51.102Z,10.13
2023-01-29T07:40:26.000Z,7.33
2023-01-29T07:43:03.493Z,6.57
2023-01-29T07:45:39.994Z,5.33
2023-01-29T07:48:14.868Z,6.87
2023-01-29T07:50:57.347Z,7.73
2023-01-29T07:53:33.493Z,6.30
2023-01-29T07:56:08.508Z,7.78
2023-01-29T07:58:43.407Z,6.27
2023-01-29T08:01:18.399Z,5.23
2023-01-29T08:03:53.420Z,7.63
2023-01-29T08:06:28.354Z,7.40
2023-01-29T08:09:03.655Z,9.40
2023-01-29T08:11:39.026Z,8.37
2023-01-29T08:14:15.207Z,8.07
2023-01-29T08:16:50.649Z,6.10
2023-01-29T08:19:25.672Z,7.07
2023-01-29T08:22:00.575Z,7.17
2023-01-29T08:24:47.752Z,6.10
2023-01-29T08:27:29.221Z,7.80
2023-01-29T08:30:06.358Z,7.00
2023-01-29T08:32:41.310Z,7.23
2023-01-29T08:35:16.474Z,6.10
2023-01-29T08:38:05.096Z,7.70
2023-01-29T08:40:40.118Z,7.60
2023-01-29T08:43:16.371Z,7.03
2023-01-29T08:45:51.241Z,7.33
2023-01-29T08:48:26.321Z,9.03
2023-01-29T08:51:03.016Z,9.10
2023-01-29T08:53:38.019Z,8.60
2023-01-29T08:56:13.004Z,6.47
2023-01-29T08:58:47.925Z,5.43
2023-01-29T09:01:22.858Z,6.30
2023-01-29T09:03:57.806Z,5.10
2023-01-29T09:06:32.684Z,6.20
2023-01-29T09:09:08.183Z,5.50
2023-01-29T09:11:43.079Z,5.30
2023-01-29T09:14:18.028Z,5.80
2023-01-29T09:16:52.950Z,8.27
2023-01-29T09:19:27.830Z,7.70
2023-01-29T09:22:02.712Z,6.67
2023-01-29T09:24:37.637Z,7.03
2023-01-29T09:27:12.524Z,5.77
2023-01-29T09:29:47.520Z,8.13
2023-01-29T09:32:49.855Z,5.57
2023-01-29T09:35:17.708Z,5.33
2023-01-29T09:37:52.817Z,6.50
2023-01-29T09:40:43.696Z,5.33
2023-01-29T09:43:40.535Z,5.43
2023-01-29T09:46:30.343Z,9.63
2023-01-29T09:49:21.285Z,7.43
2023-01-29T09:52:05.375Z,5.53
2023-01-29T09:55:06.782Z,4.73
2023-01-29T09:58:00.002Z,5.70
2023-01-29T10:01:00.873Z,6.13
2023-01-29T10:03:58.475Z,5.47
2023-01-29T10:06:48.001Z,5.83
2023-01-29T10:09:58.933Z,7.63
2023-01-29T10:13:04.953Z,6.53
2023-01-29T10:15:55.157Z,6.60
2023-01-29T10:19:07.360Z,6.80
2023-01-29T10:22:09.251Z,6.70
2023-01-29T10:24:58.177Z,5.83
2023-01-29T10:27:38.498Z,6.97
2023-01-29T10:30:32.400Z,7.10
2023-01-29T10:33:18.752Z,8.03
2023-01-29T10:36:00.261Z,7.30
2023-01-29T10:38:44.483Z,7.13
2023-01-29T10:41:34.169Z,7.73
2023-01-29T10:44:27.656Z,6.93
2023-01-29T10:47:40.571Z,6.60
2023-01-29T10:50:50.978Z,6.00
2023-01-29T10:53:56.706Z,7.30
2023-01-29T10:57:03.165Z,7.70
2023-01-29T11:00:32.904Z,6.53
2023-01-29T11:03:32.107Z,7.67
2023-01-29T11:06:25.376Z,8.03
2023-01-29T11:09:17.444Z,7.30
2023-01-29T11:12:10.931Z,7.70
2023-01-29T11:15:15.937Z,8.13
2023-01-29T11:18:15.785Z,9.37
2023-01-29T11:21:02.983Z,8.60
2023-01-29T11:23:37.910Z,8.27
2023-01-29T11:26:18.639Z,7.50
2023-01-29T11:28:53.542Z,8.30
2023-01-29T11:31:38.027Z,9.87
2023-01-29T11:34:25.175Z,8.73
2023-01-29T11:37:05.442Z,8.07
2023-01-29T11:39:45.360Z,7.90
2023-01-29T11:42:22.821Z,7.40
2023-01-29T11:44:57.708Z,7.30
2023-01-29T11:47:32.784Z,8.73
2023-01-29T11:50:20.393Z,8.00
2023-01-29T11:52:55.710Z,11.90
2023-01-29T11:55:49.336Z,8.17
2023-01-29T11:58:34.529Z,9.00
2023-01-29T12:01:10.744Z,8.40
2023-01-29T12:03:55.028Z,8.73
2023-01-29T12:06:37.015Z,7.80
2023-01-29T12:09:19.390Z,8.30
2023-01-29T12:11:54.749Z,8.20
2023-01-29T12:14:34.244Z,8.10
2023-01-29T12:17:21.053Z,9.30
2023-01-29T12:20:05.180Z,7.60
2023-01-29T12:22:50.895Z,8.43
2023-01-29T12:25:34.595Z,8.50
2023-01-29T12:28:36.595Z,7.67
2023-01-29T12:31:32.745Z,8.07
2023-01-29T12:34:31.271Z,8.27
2023-01-29T12:37:23.764Z,9.17
2023-01-29T12:39:59.134Z,8.43
2023-01-29T12:42:44.916Z,8.43
2023-01-29T12:45:23.810Z,8.13
2023-01-29T12:48:20.941Z,9.90
2023-01-29T12:51:05.139Z,9.00
2023-01-29T12:54:07.553Z,8.47
2023-01-29T12:56:50.990Z,9.10
2023-01-29T12:59:55.458Z,8.13
2023-01-29T13:02:55.684Z,9.53
2023-01-29T13:05:39.531Z,8.47
2023-01-29T13:08:19.084Z,8.00
2023-01-29T13:10:55.341Z,8.40
2023-01-29T13:13:54.695Z,9.90
2023-01-29T13:16:37.845Z,9.43
2023-01-29T13:19:37.478Z,10.30
2023-01-29T13:22:37.911Z,8.93
2023-01-29T13:25:19.927Z,9.87
2023-01-29T13:27:54.856Z,10.70
2023-01-29T13:30:33.323Z,8.50
2023-01-29T13:33:11.398Z,9.33
2023-01-29T13:35:47.374Z,11.00
2023-01-29T13:38:30.892Z,11.70
2023-01-29T13:41:08.725Z,9.20
2023-01-29T13:43:49.439Z,9.93
2023-01-29T13:46:24.432Z,8.70
2023-01-29T13:49:04.807Z,10.67
2023-01-29T13:51:39.827Z,10.10
2023-01-29T13:54:24.195Z,9.90
2023-01-29T13:57:01.711Z,9.60
2023-01-29T13:59:53.232Z,11.50
2023-01-29T14:02:29.861Z,8.87
2023-01-29T14:05:29.600Z,10.20
2023-01-29T14:08:13.007Z,8.70
2023-01-29T14:11:16.882Z,8.83
2023-01-29T14:13:52.332Z,9.63
2023-01-29T14:16:34.898Z,9.73
2023-01-29T14:19:19.128Z,11.53
2023-01-29T14:21:54.111Z,9.90
2023-01-29T14:24:31.368Z,9.57
2023-01-29T14:27:06.284Z,9.23
2023-01-29T14:29:42.017Z,10.10
2023-01-29T14:32:22.180Z,9.60
2023-01-29T14:35:10.637Z,10.80
2023-01-29T14:37:50.466Z,10.77
2023-01-29T14:40:28.017Z,10.33
2023-01-29T14:43:08.404Z,13.70
2023-01-29T14:45:44.542Z,9.63
2023-01-29T14:48:46.441Z,9.47
2023-01-29T14:51:25.455Z,9.13
2023-01-29T14:54:23.157Z,8.40
2023-01-29T14:57:02.610Z,12.40
2023-01-29T14:59:56.555Z,12.00
2023-01-29T15:02:45.542Z,10.43
2023-01-29T15:05:25.720Z,8.90
2023-01-29T15:08:32.967Z,9.93
2023-01-29T15:11:36.377Z,10.00
2023-01-29T15:14:36.787Z,10.80
2023-01-29T15:17:33.281Z,10.50
2023-01-29T15:20:36.057Z,8.53
2023-01-29T15:23:30.986Z,8.23
2023-01-29T15:26:27.839Z,13.40
2023-01-29T15:29:04.543Z,10.70
2023-01-29T15:31:42.411Z,10.03
2023-01-29T15:34:17.686Z,12.80
2023-01-29T15:36:53.010Z,10.60
2023-01-29T15:39:28.424Z,11.67
2023-01-29T15:42:21.634Z,9.37
2023-01-29T15:44:56.583Z,10.10
2023-01-29T15:47:32.677Z,9.70
2023-01-29T15:50:12.149Z,11.00
2023-01-29T15:52:52.171Z,10.80
2023-01-29T15:55:27.669Z,10.83
2023-01-29T15:58:02.739Z,10.37
2023-01-29T16:00:37.733Z,12.40
2023-01-29T16:03:16.543Z,10.10
2023-01-29T16:05:53.227Z,11.77
2023-01-29T16:08:28.747Z,12.43
2023-01-29T16:11:06.529Z,13.83
2023-01-29T16:13:44.149Z,12.27
2023-01-29T16:16:25.986Z,13.47
2023-01-29T16:19:01.572Z,13.30
2023-01-29T16:21:40.163Z,13.37
2023-01-29T16:24:22.201Z,11.70
2023-01-29T16:27:08.326Z,9.50
2023-01-29T16:29:43.304Z,13.70
2023-01-29T16:32:20.338Z,12.87
2023-01-29T16:34:59.648Z,16.60
2023-01-29T16:37:36.383Z,13.83
2023-01-29T16:40:26.553Z,12.90
2023-01-29T16:43:19.720Z,10.93
2023-01-29T16:46:08.771Z,12.47
2023-01-29T16:48:43.701Z,13.83
2023-01-29T16:51:39.284Z,14.77
2023-01-29T16:54:18.127Z,15.30
2023-01-29T16:56:56.131Z,11.83
2023-01-29T16:59:38.110Z,10.57
2023-01-29T17:02:37.762Z,10.00
2023-01-29T17:05:27.242Z,10.13
2023-01-29T17:08:03.558Z,13.80
2023-01-29T17:10:38.531Z,13.37
2023-01-29T17:13:41.561Z,11.57
2023-01-29T17:16:23.575Z,10.80
2023-01-29T17:18:59.805Z,13.60
2023-01-29T17:21:34.667Z,8.20
2023-01-29T17:24:09.573Z,8.50
2023-01-29T17:26:44.700Z,9.70
2023-01-29T17:29:25.273Z,12.43
2023-01-29T17:32:00.371Z,12.10
2023-01-29T17:34:36.251Z,10.50
2023-01-29T17:37:15.331Z,10.83
2023-01-29T17:39:50.725Z,12.93
2023-01-29T17:42:25.572Z,12.50
2023-01-29T17:45:00.466Z,9.80
2023-01-29T17:47:35.396Z,11.70
2023-01-29T17:50:21.581Z,9.53
2023-01-29T17:52:56.422Z,8.93
2023-01-29T17:55:31.301Z,10.30
2023-01-29T17:58:06.230Z,12.10
2023-01-29T18:00:41.102Z,11.10
2023-01-29T18:03:16.633Z,10.17
2023-01-29T18:05:51.534Z,10.93
2023-01-29T18:08:35.340Z,11.47
2023-01-29T18:11:12.925Z,10.67
2023-01-29T18:13:47.836Z,12.70
2023-01-29T18:16:24.154Z,15.13
2023-01-29T18:18:59.059Z,12.40
2023-01-29T18:21:33.915Z,12.40
2023-01-29T18:24:08.852Z,12.23
2023-01-29T18:26:43.838Z,14.40
2023-01-29T18:29:18.719Z,10.93
2023-01-29T18:31:53.618Z,16.97
2023-01-29T18:34:28.538Z,14.20
2023-01-29T18:37:03.824Z,15.37
2023-01-29T18:39:39.264Z,15.80
2023-01-29T18:42:14.121Z,19.30
2023-01-29T18:44:49.362Z,21.27
2023-01-29T18:47:24.431Z,18.43
2023-01-29T18:49:59.497Z,16.80
2023-01-29T18:52:34.580Z,13.20
2023-01-29T18:55:09.919Z,12.93
2023-01-29T18:58:33.903Z,14.57
2023-01-29T19:00:40.175Z,14.47
2023-01-29T19:03:15.489Z,17.17
2023-01-29T19:05:50.478Z,16.47
2023-01-29T19:08:25.451Z,12.10
2023-01-29T19:11:02.498Z,15.23
2023-01-29T19:13:38.422Z,22.37
2023-01-29T19:16:14.123Z,17.20
2023-01-29T19:18:49.235Z,17.20
2023-01-29T19:21:24.555Z,18.67
2023-01-29T19:23:59.697Z,14.37
2023-01-29T19:26:35.844Z,20.47
2023-01-29T19:29:11.388Z,15.30
2023-01-29T19:31:47.538Z,17.57
2023-01-29T19:34:22.454Z,15.73
2023-01-29T19:36:57.484Z,13.80
2023-01-29T19:39:33.970Z,16.90
2023-01-29T19:42:09.034Z,17.07
2023-01-29T19:44:45.328Z,14.50
2023-01-29T19:47:21.365Z,17.43
2023-01-29T19:49:56.259Z,17.37
2023-01-29T19:52:51.229Z,18.73
2023-01-29T19:55:26.827Z,19.00
2023-01-29T19:58:03.480Z,17.90
2023-01-29T20:00:38.498Z,17.90
2023-01-29T20:03:13.442Z,19.47
2023-01-29T20:05:48.360Z,18.60
2023-01-29T20:08:23.925Z,18.47
2023-01-29T20:10:58.977Z,19.63
2023-01-29T20:13:34.020Z,17.90
2023-01-29T20:16:09.296Z,14.50
2023-01-29T20:18:44.730Z,14.13
2023-01-29T20:21:22.050Z,12.60
2023-01-29T20:23:57.449Z,14.77
2023-01-29T20:26:32.989Z,12.37
2023-01-29T20:29:07.905Z,11.30
2023-01-29T20:31:42.971Z,13.97
2023-01-29T20:34:17.955Z,11.43
2023-01-29T20:36:52.925Z,11.60
2023-01-29T20:39:27.831Z,13.10
2023-01-29T20:42:02.727Z,10.50
2023-01-29T20:44:37.719Z,12.00
2023-01-29T20:47:12.908Z,11.73
2023-01-29T20:49:47.889Z,12.10
2023-01-29T20:52:22.765Z,14.83
2023-01-29T20:54:57.819Z,17.73
2023-01-29T20:57:33.442Z,13.18
2023-01-29T21:00:09.483Z,15.30
2023-01-29T21:02:45.977Z,17.00
2023-01-29T21:05:21.197Z,15.03
2023-01-29T21:07:56.186Z,18.83
2023-01-29T21:10:32.099Z,16.30
2023-01-29T21:13:06.948Z,19.20
2023-01-29T21:15:42.566Z,19.60
2023-01-29T21:18:17.562Z,19.90
2023-01-29T21:20:53.790Z,19.67
2023-01-29T21:23:28.827Z,18.43
2023-01-29T21:26:05.250Z,21.20
2023-01-29T21:28:40.108Z,21.60
2023-01-29T21:31:16.853Z,17.00
2023-01-29T21:33:51.889Z,16.30
2023-01-29T21:36:26.738Z,15.33
2023-01-29T21:39:01.894Z,17.87
2023-01-29T21:41:55.311Z,17.48
2023-01-29T21:44:30.739Z,21.00
2023-01-29T21:47:12.336Z,20.73
2023-01-29T21:49:47.373Z,18.33
2023-01-29T21:52:22.227Z,19.97
2023-01-29T21:54:57.173Z,20.87
2023-01-29T21:57:32.042Z,19.80
2023-01-29T22:00:08.006Z,18.97
2023-01-29T22:02:43.011Z,19.37
2023-01-29T22:05:19.942Z,20.80
2023-01-29T22:07:55.386Z,18.77
2023-01-29T22:10:30.583Z,19.03
2023-01-29T22:13:05.632Z,18.40
2023-01-29T22:15:40.497Z,18.13
2023-01-29T22:18:15.434Z,16.60
2023-01-29T22:20:55.339Z,15.65
2023-01-29T22:23:31.855Z,15.63
2023-01-29T22:26:09.759Z,19.10
2023-01-29T22:28:44.995Z,16.15
2023-01-29T22:31:19.855Z,18.95
2023-01-29T22:33:54.751Z,20.97
2023-01-29T22:36:29.628Z,16.80
2023-01-29T22:39:07.928Z,22.27
2023-01-29T22:41:42.801Z,17.50
2023-01-29T22:44:17.733Z,17.20
2023-01-29T22:46:52.807Z,17.15
2023-01-29T22:49:30.349Z,17.07
2023-01-29T22:52:11.255Z,17.77
2023-01-29T22:54:46.148Z,15.95
2023-01-29T22:57:21.157Z,16.38
2023-01-29T22:59:56.003Z,16.45
2023-01-29T23:02:30.858Z,15.85
2023-01-29T23:05:06.581Z,19.30
2023-01-29T23:07:41.476Z,16.00
2023-01-29T23:10:17.237Z,16.38
2023-01-29T23:12:52.301Z,16.58
2023-01-29T23:15:27.245Z,15.93
2023-01-29T23:18:03.177Z,15.18
2023-01-29T23:20:38.075Z,15.60
2023-01-29T23:23:12.950Z,16.37
2023-01-29T23:26:06.313Z,13.90
2023-01-29T23:28:41.186Z,14.32
2023-01-29T23:31:16.791Z,14.33
2023-01-29T23:33:51.706Z,12.80
2023-01-29T23:36:26.628Z,17.33
2023-01-29T23:39:01.559Z,15.10
2023-01-29T23:41:36.556Z,16.10
2023-01-29T23:44:11.599Z,14.75
2023-01-29T23:46:46.710Z,11.87
2023-01-29T23:49:21.936Z,18.03
2023-01-29T23:51:56.798Z,15.65
2023-01-29T23:54:31.691Z,16.40
2023-01-29T23:57:06.551Z,19.27
2023-01-29T23:59:41.479Z,17.77
